Time;durP1;ratioP1;P1;durP2;ratioP2;P2;SDS_P1;SDS_P2;PMS_P1;PMS_P2;Temp;Humidity;BMP_temperature;BMP_pressure;BME280_temperature;BME280_humidity;BME280_pressure;Samples;Min_cycle;Max_cycle;Signal;HPM_P1;HPM_P2
2022/12/02 00:01:16;;;;;;;90.97;50.08;;;7.20;1.00;;;;;;5070012;28;20032;-63
2022/12/02 00:03:42;;;;;;;90.97;50.13;;;7.20;1.00;;;;;;5070091;28;20522;-63
2022/12/02 00:06:25;;;;;;;91.05;48.85;;;7.00;1.00;;;;;;5071805;28;20032;-63
2022/12/02 00:08:52;;;;;;;88.82;48.72;;;7.00;1.00;;;;;;5058765;28;20428;-63
2022/12/02 00:11:29;;;;;;;85.95;48.33;;;7.10;1.00;;;;;;5070027;28;20185;-65
2022/12/02 00:13:58;;;;;;;87.45;48.53;;;7.10;1.00;;;;;;5066212;28;20053;-63
2022/12/02 00:16:25;;;;;;;89.82;47.30;;;7.20;1.00;;;;;;5070369;28;20036;-62
2022/12/02 00:18:52;;;;;;;90.65;48.60;;;7.20;1.00;;;;;;5071331;28;20506;-63
2022/12/02 00:21:19;;;;;;;88.55;50.28;;;7.00;1.00;;;;;;5071778;28;20071;-62
2022/12/02 00:23:44;;;;;;;82.78;46.33;;;7.20;1.00;;;;;;5062687;28;20739;-63
2022/12/02 00:26:10;;;;;;;92.72;49.88;;;7.20;99.90;;;;;;5071143;28;20115;-63
2022/12/02 00:28:36;;;;;;;90.97;49.28;;;7.10;99.90;;;;;;5069124;28;20409;-63
2022/12/02 00:31:02;;;;;;;86.45;47.30;;;7.20;99.90;;;;;;5070608;28;20469;-63
2022/12/02 00:33:28;;;;;;;89.70;48.50;;;7.20;99.90;;;;;;5070994;28;20071;-63
2022/12/02 00:35:53;;;;;;;94.40;47.13;;;7.20;99.90;;;;;;5061110;28;20063;-63
2022/12/02 00:38:19;;;;;;;87.78;47.90;;;7.10;99.90;;;;;;5051439;28;20462;-63
2022/12/02 00:40:44;;;;;;;94.00;50.50;;;7.10;99.90;;;;;;5054705;28;20047;-63
2022/12/02 00:48:38;;;;;;;92.35;49.33;;;7.10;99.90;;;;;;5071526;28;20452;-63
2022/12/02 00:51:04;;;;;;;90.90;49.63;;;7.20;99.90;;;;;;5071367;28;20033;-63
2022/12/02 00:53:30;;;;;;;93.30;49.65;;;7.00;99.90;;;;;;5069894;28;20082;-63
2022/12/02 00:55:56;;;;;;;80.68;45.78;;;7.10;99.90;;;;;;5060773;28;20386;-63
2022/12/02 00:58:21;;;;;;;86.57;45.88;;;7.00;99.90;;;;;;5063636;28;20082;-63
2022/12/02 01:00:47;;;;;;;82.75;45.47;;;7.00;99.90;;;;;;5074881;28;20036;-63
2022/12/02 01:03:13;;;;;;;89.32;45.95;;;7.20;99.90;;;;;;5067370;28;20398;-63
2022/12/02 01:05:38;;;;;;;80.18;43.47;;;7.20;93.20;;;;;;5065720;28;20529;-63
2022/12/02 01:08:04;;;;;;;79.40;42.65;;;7.20;29.30;;;;;;5054966;28;20045;-63
2022/12/02 01:10:30;;;;;;;79.07;43.55;;;6.90;1.00;;;;;;5066029;28;20116;-63
2022/12/02 01:12:55;;;;;;;79.43;43.03;;;7.10;1.00;;;;;;5074578;28;20457;-63
2022/12/02 01:15:21;;;;;;;82.18;42.83;;;7.00;1.00;;;;;;5074201;28;20044;-63
2022/12/02 01:17:46;;;;;;;82.50;43.05;;;7.00;1.00;;;;;;5074831;28;20043;-63
2022/12/02 01:20:12;;;;;;;83.50;43.65;;;7.00;1.00;;;;;;5072458;28;20039;-63
2022/12/02 01:22:38;;;;;;;79.40;41.67;;;6.90;99.90;;;;;;5074631;28;20351;-62
2022/12/02 01:25:04;;;;;;;81.05;43.58;;;7.00;99.90;;;;;;5074150;28;20089;-63
2022/12/02 01:27:29;;;;;;;77.80;41.05;;;6.90;99.90;;;;;;5066203;28;20135;-63
2022/12/02 01:29:55;;;;;;;76.57;42.55;;;7.00;99.90;;;;;;5066407;28;20231;-62
2022/12/02 01:32:22;;;;;;;81.20;42.40;;;6.90;99.90;;;;;;5072945;28;20040;-63
2022/12/02 01:34:48;;;;;;;78.22;42.28;;;6.90;99.90;;;;;;5074126;28;20045;-63
2022/12/02 01:37:14;;;;;;;76.07;41.20;;;7.00;99.90;;;;;;5073901;28;20457;-63
2022/12/02 01:39:39;;;;;;;79.97;41.55;;;6.80;99.90;;;;;;5074271;28;20106;-62
2022/12/02 01:42:05;;;;;;;78.97;40.60;;;6.90;99.90;;;;;;5068648;28;20406;-63
2022/12/02 01:44:31;;;;;;;78.35;41.10;;;6.90;99.90;;;;;;5064053;28;20091;-63
2022/12/02 01:46:57;;;;;;;73.85;40.08;;;6.80;99.90;;;;;;5062181;28;20041;-63
2022/12/02 01:49:23;;;;;;;72.63;39.88;;;6.90;99.90;;;;;;5059137;28;20068;-63
2022/12/02 01:51:49;;;;;;;72.28;39.95;;;6.90;99.90;;;;;;5065287;28;20119;-63
2022/12/02 01:54:14;;;;;;;70.97;39.22;;;6.70;99.90;;;;;;5072923;28;20116;-64
2022/12/02 01:56:40;;;;;;;72.47;39.65;;;6.90;99.90;;;;;;5070222;28;20036;-63
2022/12/02 01:59:06;;;;;;;71.53;38.83;;;6.80;97.50;;;;;;5069478;28;20051;-63
2022/12/02 02:01:33;;;;;;;70.93;40.25;;;6.60;76.70;;;;;;5055649;28;20073;-62
2022/12/02 02:04:00;;;;;;;71.00;40.20;;;6.80;58.70;;;;;;5073211;28;20406;-62
2022/12/02 02:06:30;;;;;;;69.65;39.53;;;6.70;1.00;;;;;;5069998;28;20448;-63
2022/12/02 02:08:56;;;;;;;71.80;39.75;;;6.60;1.00;;;;;;5073509;28;20139;-62
2022/12/02 02:11:24;;;;;;;73.20;39.65;;;6.70;1.00;;;;;;5071025;28;20119;-62
2022/12/02 02:13:49;;;;;;;67.78;38.25;;;6.60;1.00;;;;;;5072227;28;20056;-62
2022/12/02 02:16:15;;;;;;;64.50;37.80;;;6.70;1.00;;;;;;5071613;28;20085;-63
2022/12/02 02:18:41;;;;;;;69.18;38.38;;;6.70;1.00;;;;;;5073589;28;20124;-62
2022/12/02 02:21:12;;;;;;;66.70;38.70;;;6.50;1.00;;;;;;5073713;28;20041;-62
2022/12/02 02:23:37;;;;;;;64.97;38.92;;;6.70;1.00;;;;;;5073413;28;20042;-62
2022/12/02 02:26:03;;;;;;;67.97;38.45;;;6.70;1.00;;;;;;5071176;28;20242;-62
2022/12/02 02:28:29;;;;;;;68.72;38.50;;;6.70;1.00;;;;;;5071734;28;20045;-63
2022/12/02 02:30:56;;;;;;;64.30;38.50;;;6.50;1.00;;;;;;5071662;28;20037;-63
2022/12/02 02:33:23;;;;;;;67.97;39.55;;;6.40;1.00;;;;;;5072699;28;20051;-62
2022/12/02 02:35:50;;;;;;;69.55;39.38;;;6.50;1.00;;;;;;5072491;28;20028;-63
2022/12/02 02:38:19;;;;;;;66.18;37.03;;;6.60;99.90;;;;;;5073275;28;20053;-63
2022/12/02 02:40:45;;;;;;;62.17;38.40;;;6.50;99.90;;;;;;5073202;28;20553;-63
2022/12/02 02:43:11;;;;;;;67.97;38.85;;;6.50;99.90;;;;;;5072980;28;20486;-63
2022/12/02 02:45:39;;;;;;;70.32;39.45;;;6.50;99.90;;;;;;5071972;28;20049;-63
2022/12/02 02:48:07;;;;;;;63.50;39.13;;;6.50;99.90;;;;;;5072212;28;20067;-62
2022/12/02 02:50:35;;;;;;;61.15;34.75;;;6.30;99.90;;;;;;5073132;28;20072;-63
2022/12/02 02:53:01;;;;;;;58.92;35.45;;;6.40;99.90;;;;;;5066542;28;20390;-63
2022/12/02 02:55:28;;;;;;;64.70;37.05;;;6.40;99.90;;;;;;5072939;28;20051;-63
2022/12/02 02:57:54;;;;;;;65.25;38.80;;;6.30;99.90;;;;;;5069894;28;20485;-63
2022/12/02 03:00:21;;;;;;;62.25;36.63;;;6.30;99.90;;;;;;5072878;28;20098;-63
2022/12/02 03:02:53;;;;;;;71.38;37.85;;;6.30;99.90;;;;;;5072509;28;20123;-62
2022/12/02 03:05:21;;;;;;;64.30;37.35;;;6.40;99.90;;;;;;5071822;28;20082;-62
2022/12/02 03:07:47;;;;;;;71.85;40.65;;;6.30;99.90;;;;;;5052893;28;20071;-62
2022/12/02 03:10:13;;;;;;;65.15;38.38;;;6.40;99.90;;;;;;5068338;28;20040;-62
2022/12/02 03:12:38;;;;;;;64.03;37.65;;;6.20;99.90;;;;;;5072298;28;20059;-63
2022/12/02 03:15:05;;;;;;;65.43;37.50;;;6.30;99.90;;;;;;5071349;28;20555;-63
2022/12/02 03:17:31;;;;;;;64.38;37.28;;;6.40;99.90;;;;;;5072156;28;20040;-63
2022/12/02 03:19:57;;;;;;;66.60;38.45;;;6.20;99.90;;;;;;5072366;28;20089;-63
2022/12/02 03:22:23;;;;;;;67.22;39.47;;;6.20;99.90;;;;;;5072370;28;20036;-63
2022/12/02 03:24:49;;;;;;;68.45;38.88;;;6.20;99.90;;;;;;5072362;28;20468;-64
2022/12/02 03:27:14;;;;;;;67.93;39.10;;;6.20;99.90;;;;;;5066548;28;20549;-62
2022/12/02 03:29:41;;;;;;;69.32;38.63;;;6.30;99.90;;;;;;5071995;28;20120;-62
2022/12/02 03:32:09;;;;;;;63.72;38.47;;;6.30;99.90;;;;;;5072530;28;20506;-62
2022/12/02 03:34:36;;;;;;;66.68;38.03;;;6.20;99.90;;;;;;5072483;28;20087;-62
2022/12/02 03:37:02;;;;;;;62.88;37.90;;;6.20;99.90;;;;;;5069860;28;20410;-63
2022/12/02 03:39:28;;;;;;;64.00;37.63;;;6.20;99.90;;;;;;5072104;28;20040;-63
2022/12/02 03:41:54;;;;;;;64.95;36.90;;;6.10;99.90;;;;;;5071829;28;20047;-63
2022/12/02 03:44:19;;;;;;;68.40;40.63;;;6.20;99.90;;;;;;5072123;28;20043;-62
2022/12/02 03:46:46;;;;;;;65.97;38.80;;;6.10;99.90;;;;;;5070931;28;20080;-62
2022/12/02 03:49:13;;;;;;;65.22;36.72;;;6.10;99.90;;;;;;5070592;28;20072;-62
2022/12/02 03:51:40;;;;;;;62.22;36.38;;;6.20;99.90;;;;;;5072144;28;20044;-63
2022/12/02 03:54:06;;;;;;;67.60;36.65;;;6.10;99.90;;;;;;5071352;28;20457;-62
2022/12/02 03:56:37;;;;;;;70.30;38.35;;;6.20;99.90;;;;;;5071320;28;20040;-63
2022/12/02 03:59:02;;;;;;;64.57;38.25;;;6.10;99.90;;;;;;5071479;28;20072;-62
2022/12/02 04:01:28;;;;;;;62.95;35.78;;;6.20;99.90;;;;;;5072199;28;20039;-63
2022/12/02 04:03:53;;;;;;;69.10;38.53;;;6.10;99.90;;;;;;5071660;28;20041;-62
2022/12/02 04:06:19;;;;;;;68.68;38.55;;;6.10;99.90;;;;;;5071768;28;20068;-62
2022/12/02 04:08:44;;;;;;;66.82;37.85;;;6.10;99.90;;;;;;5069760;28;20041;-62
2022/12/02 04:11:10;;;;;;;68.20;36.33;;;6.20;99.90;;;;;;5071390;28;20037;-62
2022/12/02 04:13:35;;;;;;;65.22;37.58;;;6.10;99.90;;;;;;5071694;28;20102;-63
2022/12/02 04:16:01;;;;;;;59.33;35.75;;;6.00;99.90;;;;;;5072088;28;20487;-63
2022/12/02 04:18:28;;;;;;;63.20;35.63;;;6.00;99.90;;;;;;5071020;28;20409;-63
2022/12/02 04:20:54;;;;;;;59.95;35.83;;;6.10;99.90;;;;;;5071376;28;20064;-62
2022/12/02 04:23:19;;;;;;;61.80;36.45;;;6.00;99.90;;;;;;5071641;28;20118;-62
2022/12/02 04:25:45;;;;;;;59.25;35.63;;;5.90;99.90;;;;;;5070130;28;20040;-63
2022/12/02 04:28:10;;;;;;;66.20;36.28;;;5.90;99.90;;;;;;5070436;28;20402;-62
2022/12/02 04:30:36;;;;;;;61.42;33.83;;;6.00;99.90;;;;;;5069756;28;20119;-62
2022/12/02 04:33:02;;;;;;;60.60;34.97;;;6.00;99.90;;;;;;5071622;28;20047;-62
2022/12/02 04:35:28;;;;;;;66.10;34.17;;;7.70;99.90;;;;;;5075541;28;20052;-62
2022/12/02 04:37:54;;;;;;;61.75;35.28;;;5.90;99.90;;;;;;5073070;28;20051;-63
2022/12/02 04:40:21;;;;;;;61.97;35.72;;;5.90;99.90;;;;;;5075120;28;20036;-62
2022/12/02 04:42:46;;;;;;;67.05;36.50;;;5.90;99.90;;;;;;5075404;28;20032;-62
2022/12/02 04:45:12;;;;;;;63.60;37.13;;;5.90;99.90;;;;;;5075459;28;20430;-62
2022/12/02 04:47:37;;;;;;;64.13;35.05;;;5.80;99.90;;;;;;5072454;28;20138;-63
2022/12/02 04:50:05;;;;;;;59.20;34.13;;;6.00;99.90;;;;;;5074960;28;20512;-62
2022/12/02 04:52:30;;;;;;;61.38;31.77;;;5.90;99.90;;;;;;5074661;28;20047;-62
2022/12/02 04:54:56;;;;;;;61.47;33.78;;;6.00;99.90;;;;;;5073344;28;20127;-63
2022/12/02 04:57:21;;;;;;;65.75;35.10;;;6.00;99.90;;;;;;5072903;28;20036;-64
2022/12/02 04:59:47;;;;;;;67.15;34.83;;;5.90;99.90;;;;;;5073702;28;20577;-62
2022/12/02 05:02:12;;;;;;;61.95;34.33;;;5.80;99.90;;;;;;5067989;28;20055;-63
2022/12/02 05:04:38;;;;;;;61.42;33.22;;;5.90;99.90;;;;;;5055048;28;20498;-63
2022/12/02 05:07:04;;;;;;;63.20;33.80;;;5.90;99.90;;;;;;5073758;28;20049;-62
2022/12/02 05:09:29;;;;;;;60.25;32.45;;;5.90;17.80;;;;;;5073479;28;20070;-63
2022/12/02 05:11:55;;;;;;;59.33;32.95;;;5.90;25.90;;;;;;5074065;28;20493;-62
2022/12/02 05:14:20;;;;;;;64.25;35.42;;;5.80;14.70;;;;;;5082189;28;20048;-62
2022/12/02 05:16:46;;;;;;;58.72;31.63;;;6.00;1.00;;;;;;5072499;28;20060;-62
2022/12/02 05:19:11;;;;;;;59.08;32.38;;;5.90;1.00;;;;;;5074148;28;20103;-62
2022/12/02 05:21:37;;;;;;;61.33;33.83;;;5.90;1.70;;;;;;5072625;28;20032;-62
2022/12/02 05:24:03;;;;;;;60.78;33.67;;;6.00;1.00;;;;;;5074794;28;20162;-63
2022/12/02 05:26:28;;;;;;;59.88;31.85;;;5.90;1.00;;;;;;5073604;28;20033;-62
2022/12/02 05:28:54;;;;;;;63.00;32.78;;;5.90;1.00;;;;;;5073200;28;20452;-63
2022/12/02 05:31:19;;;;;;;60.50;33.40;;;5.90;1.00;;;;;;5069001;28;20041;-62
2022/12/02 05:33:45;;;;;;;62.03;33.40;;;5.90;15.80;;;;;;5072483;28;20051;-62
2022/12/02 05:36:11;;;;;;;60.10;33.00;;;6.00;12.50;;;;;;5071321;28;20418;-62
2022/12/02 05:38:41;;;;;;;60.97;30.38;;;5.90;10.10;;;;;;5068196;28;20055;-62
2022/12/02 05:41:06;;;;;;;63.17;34.53;;;6.00;1.00;;;;;;5072623;28;20041;-63
2022/12/02 05:43:40;;;;;;;60.50;33.33;;;5.90;1.00;;;;;;5067871;28;20065;-63
2022/12/02 05:46:20;;;;;;;66.43;35.25;;;6.00;1.00;;;;;;5059575;28;20087;-62
2022/12/02 05:48:47;;;;;;;65.13;34.35;;;5.90;1.00;;;;;;5060165;28;20037;-62
2022/12/02 05:51:18;;;;;;;65.63;34.97;;;5.90;1.00;;;;;;5061531;28;20097;-62
2022/12/02 05:53:45;;;;;;;62.60;34.10;;;5.90;1.00;;;;;;5071143;28;20127;-62
2022/12/02 05:56:17;;;;;;;70.57;35.67;;;6.00;1.00;;;;;;5074071;28;20424;-62
2022/12/02 05:58:42;;;;;;;68.53;35.45;;;5.90;1.00;;;;;;5074030;28;20033;-62
2022/12/02 06:01:40;;;;;;;67.65;35.25;;;6.00;1.00;;;;;;5073753;28;20045;-62
2022/12/02 06:04:17;;;;;;;70.78;37.28;;;6.00;1.00;;;;;;5059701;28;20044;-63
2022/12/02 06:06:43;;;;;;;70.65;37.25;;;5.90;1.00;;;;;;5073557;28;20494;-62
2022/12/02 06:09:17;;;;;;;69.28;35.00;;;5.90;1.00;;;;;;5074024;28;20074;-62
2022/12/02 06:11:43;;;;;;;73.85;37.00;;;5.90;1.00;;;;;;5073436;28;20129;-62
2022/12/02 06:14:23;;;;;;;70.65;36.60;;;5.80;1.00;;;;;;5069255;28;20058;-62
2022/12/02 06:16:55;;;;;;;70.68;35.38;;;6.00;1.00;;;;;;5068530;28;20076;-63
2022/12/02 06:19:27;;;;;;;80.22;36.85;;;5.90;1.00;;;;;;5073470;28;20044;-62
2022/12/02 06:21:54;;;;;;;78.47;37.80;;;5.80;1.00;;;;;;5073393;28;20032;-63
2022/12/02 06:24:26;;;;;;;80.95;38.10;;;5.90;1.00;;;;;;5071814;28;20032;-62
2022/12/02 06:26:55;;;;;;;75.35;35.97;;;5.80;1.00;;;;;;5059088;28;20045;-63
2022/12/02 06:29:20;;;;;;;75.50;37.60;;;5.70;1.00;;;;;;5073308;28;20132;-62
2022/12/02 06:31:46;;;;;;;77.00;37.30;;;5.70;1.00;;;;;;5073442;28;20115;-62
2022/12/02 06:34:24;;;;;;;76.32;37.40;;;5.70;1.00;;;;;;5071099;28;20033;-63
2022/12/02 06:36:49;;;;;;;74.28;36.63;;;5.70;5.00;;;;;;5072183;28;20044;-62
2022/12/02 06:39:21;;;;;;;77.03;36.72;;;5.70;14.80;;;;;;5073171;28;20094;-62
2022/12/02 06:41:48;;;;;;;78.03;38.03;;;5.60;22.20;;;;;;5071973;28;20048;-62
2022/12/02 06:47:36;;;;;;;82.88;38.13;;;5.50;28.80;;;;;;5071188;28;20456;-62
2022/12/02 06:50:05;;;;;;;81.35;36.92;;;5.50;30.70;;;;;;5073130;28;20119;-63
2022/12/02 06:52:41;;;;;;;86.25;40.50;;;5.40;40.70;;;;;;5062737;28;20083;-62
2022/12/02 06:55:29;;;;;;;77.80;37.30;;;5.50;58.20;;;;;;5070192;28;20401;-62
2022/12/02 06:58:19;;;;;;;74.15;35.75;;;5.30;76.70;;;;;;5070730;28;20059;-62
2022/12/02 07:00:45;;;;;;;89.78;38.30;;;5.30;90.80;;;;;;5051898;28;20051;-62
2022/12/02 07:03:32;;;;;;;78.25;36.80;;;5.20;97.30;;;;;;5058410;28;20491;-62
2022/12/02 07:06:15;;;;;;;;;;;5.30;99.90;;;;;;5070948;28;20062;-62
2022/12/02 07:08:41;;;;;;;88.68;36.95;;;5.30;99.90;;;;;;5072687;28;19923;-62
2022/12/02 07:11:49;;;;;;;79.90;37.38;;;5.30;99.90;;;;;;5071652;28;20398;-62
2022/12/02 07:14:25;;;;;;;76.15;37.00;;;5.10;99.90;;;;;;5072487;28;20036;-62
2022/12/02 07:16:54;;;;;;;79.20;36.20;;;5.30;99.90;;;;;;5067051;28;20852;-62
2022/12/02 07:19:38;;;;;;;86.82;38.70;;;5.30;99.90;;;;;;5059260;28;20048;-62
2022/12/02 07:22:19;;;;;;;84.30;39.10;;;5.20;99.90;;;;;;5052195;28;20048;-63
2022/12/02 07:24:53;;;;;;;79.30;37.45;;;5.30;99.90;;;;;;5063875;28;20486;-62
2022/12/02 07:27:25;;;;;;;78.07;35.83;;;5.10;99.90;;;;;;5070413;28;20046;-63
2022/12/02 07:29:53;;;;;;;77.78;37.42;;;5.10;99.90;;;;;;5070705;28;20040;-62
2022/12/02 07:32:19;;;;;;;81.93;37.35;;;5.10;99.90;;;;;;5051905;28;20295;-62
2022/12/02 07:34:45;;;;;;;79.20;36.35;;;5.10;99.90;;;;;;5062233;28;20032;-62
2022/12/02 07:37:10;;;;;;;74.75;36.25;;;4.90;99.90;;;;;;5071977;28;20033;-62
2022/12/02 07:39:36;;;;;;;74.25;35.65;;;4.90;99.90;;;;;;5068011;28;20079;-62
2022/12/02 07:42:02;;;;;;;69.85;33.97;;;4.90;99.90;;;;;;5067121;28;20419;-62
2022/12/02 07:44:27;;;;;;;72.03;34.72;;;4.80;99.90;;;;;;5072046;28;20044;-62
2022/12/02 07:46:53;;;;;;;82.97;35.53;;;4.90;99.90;;;;;;5070582;28;20502;-62
2022/12/02 07:49:18;;;;;;;77.45;35.35;;;4.80;99.90;;;;;;5072367;28;20452;-62
2022/12/02 07:51:44;;;;;;;77.53;35.90;;;4.70;99.90;;;;;;5069068;28;20347;-62
2022/12/02 07:54:09;;;;;;;79.32;34.60;;;4.70;99.90;;;;;;5064244;28;20423;-62
2022/12/02 07:56:35;;;;;;;70.50;34.35;;;4.90;99.90;;;;;;5051984;28;20086;-62
2022/12/02 07:59:01;;;;;;;77.28;36.25;;;4.80;99.90;;;;;;5051917;28;20037;-62
2022/12/02 08:01:27;;;;;;;75.35;35.40;;;4.80;99.90;;;;;;5061606;28;20044;-62
2022/12/02 08:03:52;;;;;;;72.88;36.60;;;4.60;99.90;;;;;;5056851;28;20368;-62
2022/12/02 08:06:18;;;;;;;77.40;37.83;;;4.60;99.90;;;;;;5059115;28;20044;-62
2022/12/02 08:08:44;;;;;;;80.30;36.75;;;4.90;99.90;;;;;;5057579;28;20036;-62
2022/12/02 08:11:09;;;;;;;79.90;38.03;;;5.00;1.00;;;;;;5063376;28;20119;-62
2022/12/02 08:13:35;;;;;;;81.60;37.75;;;4.90;1.00;;;;;;5065096;28;20036;-62
2022/12/02 08:16:00;;;;;;;79.28;37.00;;;4.80;1.00;;;;;;5069123;28;20055;-62
2022/12/02 08:18:26;;;;;;;72.50;35.60;;;4.90;1.00;;;;;;5066769;28;20047;-62
2022/12/02 08:20:51;;;;;;;68.65;36.33;;;4.90;1.00;;;;;;5070038;28;20398;-62
2022/12/02 08:23:17;;;;;;;78.93;37.33;;;4.80;1.00;;;;;;5072300;28;20063;-62
2022/12/02 08:25:43;;;;;;;75.82;36.83;;;5.00;1.00;;;;;;5065246;28;20462;-62
2022/12/02 08:28:08;;;;;;;77.22;37.33;;;4.90;1.00;;;;;;5070177;28;20460;-62
2022/12/02 08:30:34;;;;;;;76.40;38.17;;;4.60;1.00;;;;;;5066306;28;20367;-62
2022/12/02 08:32:59;;;;;;;81.50;38.53;;;5.00;1.00;;;;;;5072784;28;20037;-62
2022/12/02 08:35:25;;;;;;;83.55;38.20;;;5.00;48.00;;;;;;5074256;28;20072;-62
2022/12/02 08:37:50;;;;;;;85.10;39.45;;;5.10;99.90;;;;;;5067477;28;20037;-62
2022/12/02 08:40:16;;;;;;;73.18;36.03;;;4.80;99.90;;;;;;5062656;28;20037;-62
2022/12/02 08:42:41;;;;;;;76.03;37.15;;;4.90;99.90;;;;;;5062772;28;20064;-62
2022/12/02 08:45:08;;;;;;;74.95;36.38;;;5.20;99.90;;;;;;5065995;28;20029;-62
2022/12/02 08:47:33;;;;;;;72.78;35.58;;;5.30;99.90;;;;;;5063656;28;20044;-62
2022/12/02 08:49:59;;;;;;;69.03;34.30;;;5.40;99.90;;;;;;5073444;28;20044;-62
2022/12/02 08:52:24;;;;;;;70.75;33.78;;;5.30;99.90;;;;;;5074326;28;20123;-63
2022/12/02 08:54:50;;;;;;;66.90;33.67;;;5.60;99.90;;;;;;5069225;28;20037;-62
2022/12/02 08:57:16;;;;;;;58.08;31.20;;;5.60;99.90;;;;;;5069196;28;20067;-62
2022/12/02 08:59:41;;;;;;;57.78;30.10;;;5.70;99.90;;;;;;5072586;28;20062;-62
2022/12/02 09:02:07;;;;;;;52.42;29.27;;;5.70;99.90;;;;;;5070666;28;20041;-62
2022/12/02 09:04:32;;;;;;;50.00;26.60;;;5.80;99.90;;;;;;5065814;28;20036;-62
2022/12/02 09:06:58;;;;;;;47.20;26.13;;;6.10;99.90;;;;;;5070106;28;20024;-62
2022/12/02 09:09:23;;;;;;;48.70;24.15;;;6.20;99.90;;;;;;5071202;28;20041;-62
2022/12/02 09:11:49;;;;;;;44.72;25.05;;;6.40;99.90;;;;;;5074340;28;20032;-62
2022/12/02 09:14:14;;;;;;;44.85;25.02;;;6.30;99.90;;;;;;5065367;28;20032;-64
2022/12/02 09:16:40;;;;;;;44.85;23.92;;;6.40;99.90;;;;;;5072086;28;20063;-62
2022/12/02 09:19:06;;;;;;;43.50;23.60;;;6.50;78.20;;;;;;5088983;28;20425;-63
2022/12/02 09:21:31;;;;;;;46.22;24.60;;;6.50;19.20;;;;;;5089703;28;20044;-63
2022/12/02 09:23:57;;;;;;;47.92;24.65;;;6.70;1.00;;;;;;5088142;28;20032;-62
2022/12/02 09:26:22;;;;;;;47.40;24.50;;;6.70;1.00;;;;;;5086117;28;20035;-62
2022/12/02 09:28:48;;;;;;;48.17;25.95;;;6.70;1.00;;;;;;5093098;28;20459;-62
2022/12/02 09:31:14;;;;;;;52.17;26.17;;;6.80;1.00;;;;;;5093673;28;20078;-62
2022/12/02 09:33:39;;;;;;;49.28;26.30;;;6.90;1.00;;;;;;5086486;28;20093;-62
2022/12/02 09:36:05;;;;;;;53.97;28.00;;;6.90;99.90;;;;;;5092066;28;20044;-62
2022/12/02 09:38:31;;;;;;;56.00;29.63;;;6.90;99.90;;;;;;5089638;28;20043;-62
2022/12/02 09:41:00;;;;;;;52.17;28.08;;;6.80;99.90;;;;;;5089381;28;20078;-62
2022/12/02 09:43:27;;;;;;;51.38;26.15;;;6.70;98.70;;;;;;5079089;28;20040;-62
2022/12/02 09:45:54;;;;;;;41.80;24.75;;;6.80;1.00;;;;;;5091881;28;20036;-63
2022/12/02 09:48:19;;;;;;;44.50;25.25;;;6.70;1.00;;;;;;5094112;28;20040;-62
2022/12/02 09:50:45;;;;;;;43.08;26.15;;;6.60;1.00;;;;;;5083426;28;20037;-63
2022/12/02 09:53:13;;;;;;;46.45;25.70;;;6.50;99.90;;;;;;5077224;28;20055;-63
2022/12/02 09:55:38;;;;;;;48.97;26.67;;;6.40;99.90;;;;;;5074904;28;20048;-62
2022/12/02 09:58:14;;;;;;;52.97;27.60;;;6.30;99.90;;;;;;5073874;28;20047;-62
2022/12/02 10:00:40;;;;;;;57.33;28.13;;;6.20;99.90;;;;;;5082197;28;20034;-62
2022/12/02 10:03:07;;;;;;;51.00;27.77;;;6.10;99.90;;;;;;5089183;28;20115;-62
2022/12/02 10:05:32;;;;;;;53.30;27.38;;;6.10;99.90;;;;;;5081653;28;20032;-62
2022/12/02 10:07:59;;;;;;;53.63;31.05;;;6.20;99.90;;;;;;5088178;28;20431;-62
2022/12/02 10:10:28;;;;;;;53.03;30.77;;;6.20;99.90;;;;;;5082241;28;20040;-63
2022/12/02 10:12:53;;;;;;;49.40;25.42;;;6.30;1.00;;;;;;5090374;28;20115;-62
2022/12/02 10:15:24;;;;;;;56.72;28.70;;;6.30;1.00;;;;;;5091607;28;20151;-62
2022/12/02 10:17:50;;;;;;;53.20;29.02;;;6.40;1.00;;;;;;5087444;28;20248;-62
2022/12/02 10:20:19;;;;;;;47.97;26.15;;;6.50;99.90;;;;;;5075375;28;20875;-62
2022/12/02 10:23:14;;;;;;;43.65;25.58;;;6.50;99.90;;;;;;5088605;28;20075;-63
2022/12/02 10:25:44;;;;;;;36.70;22.40;;;6.50;99.90;;;;;;5088439;28;20177;-62
2022/12/02 10:28:20;;;;;;;35.67;21.63;;;6.30;99.90;;;;;;5089907;28;20097;-63
2022/12/02 10:30:52;;;;;;;33.72;20.90;;;6.30;99.90;;;;;;5088355;28;20063;-63
2022/12/02 10:33:23;;;;;;;28.98;18.98;;;6.20;99.90;;;;;;5085219;28;20498;-62
2022/12/02 10:35:51;;;;;;;38.75;20.70;;;6.20;99.90;;;;;;5072072;28;20048;-62
2022/12/02 10:38:34;;;;;;;33.95;19.95;;;6.10;69.80;;;;;;5073670;28;20123;-62
2022/12/02 10:41:11;;;;;;;32.17;19.50;;;6.00;32.80;;;;;;5084072;28;20035;-62
2022/12/02 10:43:37;;;;;;;31.20;19.48;;;5.90;16.70;;;;;;5081710;28;20477;-63
2022/12/02 10:46:03;;;;;;;31.60;18.17;;;6.00;51.60;;;;;;5088394;28;20032;-63
2022/12/02 10:48:28;;;;;;;31.95;19.52;;;6.00;46.20;;;;;;5089054;28;20028;-62
2022/12/02 10:50:54;;;;;;;30.70;17.88;;;6.00;40.00;;;;;;5080875;28;20071;-63
2022/12/02 10:53:26;;;;;;;31.25;18.65;;;6.00;52.40;;;;;;5071627;28;20098;-62
2022/12/02 10:55:53;;;;;;;33.22;20.08;;;6.00;27.30;;;;;;5077353;28;20032;-62
2022/12/02 10:58:25;;;;;;;34.22;21.30;;;6.00;40.00;;;;;;5067846;28;20131;-63
2022/12/02 11:00:51;;;;;;;32.90;20.35;;;5.90;34.80;;;;;;5091469;28;20477;-62
2022/12/02 11:03:18;;;;;;;30.08;18.77;;;5.90;63.80;;;;;;5082097;28;20039;-62
2022/12/02 11:05:45;;;;;;;29.23;18.27;;;6.00;99.90;;;;;;5078568;28;20093;-62
2022/12/02 11:08:22;;;;;;;30.27;18.23;;;6.10;92.50;;;;;;5084505;28;20416;-62
2022/12/02 11:11:07;;;;;;;28.48;17.77;;;6.00;46.60;;;;;;5091290;28;20405;-61
2022/12/02 11:14:33;;;;;;;32.60;18.40;;;6.00;16.10;;;;;;5090524;28;20444;-62
2022/12/02 11:17:12;;;;;;;33.10;19.08;;;6.00;1.00;;;;;;5069543;28;20441;-62
2022/12/02 11:19:45;;;;;;;35.33;20.58;;;5.90;1.00;;;;;;5088757;28;20081;-62
2022/12/02 11:22:53;;;;;;;30.95;17.55;;;5.80;2.60;;;;;;5087494;28;20036;-62
2022/12/02 11:25:48;;;;;;;34.35;19.75;;;5.80;1.00;;;;;;5082140;28;20597;-62
2022/12/02 11:28:16;;;;;;;36.45;21.23;;;5.80;1.00;;;;;;5078414;28;20043;-62
2022/12/02 11:30:42;;;;;;;36.75;21.25;;;5.70;1.00;;;;;;5091795;28;20500;-62
2022/12/02 11:33:32;;;;;;;40.00;22.25;;;5.80;2.70;;;;;;5077841;28;20032;-62
2022/12/02 11:36:16;;;;;;;36.08;20.95;;;5.80;8.30;;;;;;5074051;28;20044;-62
2022/12/02 11:38:44;;;;;;;34.17;21.20;;;5.70;1.00;;;;;;5083753;28;20432;-62
2022/12/02 11:41:10;;;;;;;34.00;21.48;;;5.70;8.90;;;;;;5088785;28;20028;-62
2022/12/02 11:43:39;;;;;;;34.92;20.83;;;5.80;19.10;;;;;;5084246;28;20044;-62
2022/12/02 11:46:05;;;;;;;33.30;21.13;;;5.80;4.80;;;;;;5088913;28;20046;-62
2022/12/02 11:48:31;;;;;;;35.05;20.42;;;5.80;11.80;;;;;;5090466;28;20482;-62
2022/12/02 11:50:56;;;;;;;32.25;20.55;;;5.80;7.00;;;;;;5090072;28;20046;-62
2022/12/02 11:53:23;;;;;;;32.63;20.70;;;5.90;1.00;;;;;;5082291;28;20036;-62
2022/12/02 11:55:51;;;;;;;28.80;20.65;;;5.90;1.00;;;;;;5088069;28;20048;-62
2022/12/02 11:58:28;;;;;;;29.88;19.63;;;5.80;1.00;;;;;;5085258;28;20047;-62
2022/12/02 12:01:15;;;;;;;32.42;21.42;;;5.80;1.00;;;;;;5089026;28;20044;-62
2022/12/02 12:03:42;;;;;;;30.67;20.90;;;5.80;1.00;;;;;;5077842;28;20642;-62
2022/12/02 12:06:11;;;;;;;33.17;21.77;;;5.80;1.00;;;;;;5084647;28;20056;-62
2022/12/02 12:08:38;;;;;;;32.22;22.17;;;5.70;1.00;;;;;;5080046;28;20047;-63
2022/12/02 12:11:28;;;;;;;33.13;22.25;;;5.80;1.00;;;;;;5080123;28;20054;-62
2022/12/02 12:14:18;;;;;;;33.35;22.83;;;5.80;1.00;;;;;;5081627;28;20119;-62
2022/12/02 12:16:48;;;;;;;36.08;22.83;;;5.90;1.00;;;;;;5078649;28;20117;-61
2022/12/02 12:19:14;;;;;;;37.72;26.80;;;6.00;1.00;;;;;;5083333;28;20383;-62
2022/12/02 12:21:46;;;;;;;40.03;28.42;;;6.10;1.00;;;;;;5079643;28;20059;-62
2022/12/02 12:24:22;;;;;;;47.00;30.00;;;6.10;1.00;;;;;;5080444;28;20547;-62
2022/12/02 12:26:52;;;;;;;47.70;32.70;;;6.00;1.00;;;;;;5080568;28;20044;-62
2022/12/02 12:29:20;;;;;;;44.78;31.33;;;6.00;1.00;;;;;;5089716;28;20032;-62
2022/12/02 12:31:47;;;;;;;47.55;31.08;;;6.00;1.00;;;;;;5087137;28;20074;-62
2022/12/02 12:34:15;;;;;;;51.33;34.67;;;5.90;1.00;;;;;;5075963;28;20047;-62
2022/12/02 12:36:41;;;;;;;51.05;33.22;;;6.00;1.00;;;;;;5086524;28;20045;-62
2022/12/02 12:39:08;;;;;;;50.05;34.80;;;5.90;1.00;;;;;;5086616;28;20072;-62
2022/12/02 12:41:34;;;;;;;50.83;35.00;;;5.90;1.00;;;;;;5088288;28;20067;-62
2022/12/02 12:44:00;;;;;;;52.50;34.35;;;5.90;1.00;;;;;;5087194;28;20131;-62
2022/12/02 12:46:25;;;;;;;50.50;34.08;;;5.90;1.00;;;;;;5081490;28;20131;-62
2022/12/02 12:48:51;;;;;;;45.08;32.58;;;6.00;1.00;;;;;;5074563;28;20108;-62
2022/12/02 12:51:16;;;;;;;53.10;34.53;;;5.90;1.00;;;;;;5080352;28;20045;-62
2022/12/02 12:53:42;;;;;;;49.65;33.33;;;6.00;1.00;;;;;;5077442;28;20040;-63
2022/12/02 12:56:07;;;;;;;46.83;30.95;;;6.00;1.00;;;;;;5074648;28;20044;-63